Time;durP1;ratioP1;P1;durP2;ratioP2;P2;SDS_P1;SDS_P2;PMS_P1;PMS_P2;Temp;Humidity;BMP_temperature;BMP_pressure;BME280_temperature;BME280_humidity;BME280_pressure;Samples;Min_cycle;Max_cycle;Signal;HPM_P1;HPM_P2
2022/05/08 00:00:00;;;;;;;7.10;1.20;;;10.00;99.90;;;;;;5029547;28;20432;-71
2022/05/08 00:02:25;;;;;;;3.53;0.90;;;10.00;99.90;;;;;;5029379;28;20036;-71
2022/05/08 00:04:53;;;;;;;3.47;1.15;;;10.00;99.90;;;;;;5031231;28;20492;-72
2022/05/08 00:07:19;;;;;;;3.60;0.85;;;10.00;99.90;;;;;;5029940;28;20037;-71
2022/05/08 00:09:46;;;;;;;12.93;1.17;;;10.00;99.90;;;;;;5029725;28;20164;-71
2022/05/08 00:12:12;;;;;;;1.20;0.63;;;9.90;99.90;;;;;;5013081;28;20046;-72
2022/05/08 00:14:38;;;;;;;2.47;1.13;;;9.90;99.90;;;;;;5028109;28;20072;-71
2022/05/08 00:17:04;;;;;;;2.47;0.75;;;9.90;99.90;;;;;;5030220;28;20195;-72
2022/05/08 00:19:30;;;;;;;4.93;1.08;;;9.90;99.90;;;;;;5030805;28;20051;-71
2022/05/08 00:21:55;;;;;;;4.43;0.98;;;9.80;99.90;;;;;;5027760;28;20033;-72
2022/05/08 00:24:21;;;;;;;6.60;1.25;;;9.90;99.90;;;;;;5026722;28;20041;-71
2022/05/08 00:26:46;;;;;;;1.75;0.90;;;9.80;99.90;;;;;;5030260;28;20041;-72
2022/05/08 00:29:12;;;;;;;3.72;1.00;;;9.80;99.90;;;;;;5028518;28;20075;-72
2022/05/08 00:31:38;;;;;;;4.50;1.23;;;9.80;99.90;;;;;;5029067;28;20076;-71
2022/05/08 00:34:04;;;;;;;3.88;0.90;;;9.70;99.90;;;;;;5030359;28;20059;-72
2022/05/08 00:36:30;;;;;;;5.50;1.17;;;9.70;99.90;;;;;;5028616;28;20064;-71
2022/05/08 00:38:55;;;;;;;2.80;1.17;;;9.60;99.90;;;;;;5028804;28;20041;-72
2022/05/08 00:41:21;;;;;;;4.80;0.95;;;9.60;99.90;;;;;;5028548;28;20136;-72
2022/05/08 00:43:47;;;;;;;4.10;1.05;;;9.60;99.90;;;;;;5028587;28;20033;-72
2022/05/08 00:46:14;;;;;;;2.42;1.10;;;9.60;99.90;;;;;;5030841;28;20036;-71
2022/05/08 00:48:40;;;;;;;7.65;1.10;;;9.50;99.90;;;;;;5029902;28;20033;-71
2022/05/08 00:51:08;;;;;;;6.35;1.58;;;9.50;99.90;;;;;;5028764;28;20046;-71
2022/05/08 00:53:39;;;;;;;3.08;1.08;;;9.50;99.90;;;;;;5027908;28;20116;-71
2022/05/08 00:56:07;;;;;;;3.80;1.20;;;9.40;99.90;;;;;;5023297;28;20044;-71
2022/05/08 00:58:34;;;;;;;5.32;1.00;;;9.40;99.90;;;;;;5012983;28;20494;-71
2022/05/08 01:01:00;;;;;;;2.97;1.02;;;9.40;99.90;;;;;;5029536;28;20032;-71
2022/05/08 01:03:26;;;;;;;2.05;0.82;;;9.40;99.90;;;;;;5012980;28;20175;-71
2022/05/08 01:05:55;;;;;;;2.83;0.57;;;9.30;99.90;;;;;;5028323;28;20048;-71
2022/05/08 01:08:25;;;;;;;1.73;0.90;;;9.30;99.90;;;;;;5029486;28;20190;-71
2022/05/08 01:10:54;;;;;;;4.03;1.27;;;9.30;99.90;;;;;;5027410;28;20030;-71
2022/05/08 01:13:20;;;;;;;2.88;0.90;;;9.20;99.90;;;;;;5012868;28;20048;-71
2022/05/08 01:15:47;;;;;;;3.00;0.80;;;9.10;99.90;;;;;;5062125;28;20040;-71
2022/05/08 01:18:14;;;;;;;3.58;0.60;;;9.10;99.90;;;;;;5027485;28;20078;-71
2022/05/08 01:20:41;;;;;;;2.45;0.90;;;9.10;99.90;;;;;;5011538;28;20036;-71
2022/05/08 01:23:08;;;;;;;3.03;0.57;;;9.00;99.90;;;;;;5026165;28;20037;-71
2022/05/08 01:25:34;;;;;;;3.28;0.73;;;9.00;99.90;;;;;;5025703;28;20025;-71
2022/05/08 01:28:03;;;;;;;1.60;0.73;;;9.00;99.90;;;;;;5026576;28;20033;-71
2022/05/08 01:30:29;;;;;;;4.38;1.13;;;8.90;99.90;;;;;;5026142;28;20041;-71
2022/05/08 01:32:57;;;;;;;4.70;1.08;;;8.90;99.90;;;;;;5012671;28;20041;-71
2022/05/08 01:35:24;;;;;;;4.22;1.55;;;8.80;99.90;;;;;;5027846;28;20038;-71
2022/05/08 01:37:50;;;;;;;4.65;0.98;;;8.80;99.90;;;;;;5026930;28;20118;-71
2022/05/08 01:40:17;;;;;;;8.07;1.25;;;8.80;99.90;;;;;;5009864;28;20044;-71
2022/05/08 01:42:44;;;;;;;2.92;1.10;;;8.80;99.90;;;;;;5012533;28;20094;-71
2022/05/08 01:45:11;;;;;;;4.40;0.82;;;8.70;99.90;;;;;;5027817;28;20036;-71
2022/05/08 01:50:22;;;;;;;8.07;0.77;;;8.70;99.90;;;;;;5027262;28;20037;-71
2022/05/08 01:52:47;;;;;;;3.00;0.98;;;8.60;99.90;;;;;;5025973;28;20055;-71
2022/05/08 01:55:13;;;;;;;3.28;1.00;;;8.60;99.90;;;;;;5026333;28;20044;-71
2022/05/08 01:57:39;;;;;;;2.08;0.70;;;8.50;99.90;;;;;;5028716;28;20047;-71
2022/05/08 02:00:05;;;;;;;3.35;0.93;;;8.50;99.90;;;;;;5027648;28;20041;-71
2022/05/08 02:02:32;;;;;;;3.75;1.10;;;8.40;99.90;;;;;;5025852;28;20064;-71
2022/05/08 02:04:57;;;;;;;1.15;0.70;;;8.30;99.90;;;;;;5027179;28;20064;-71
2022/05/08 02:07:23;;;;;;;2.00;0.85;;;8.40;99.90;;;;;;5026169;28;20540;-71
2022/05/08 02:09:49;;;;;;;2.50;0.63;;;8.30;99.90;;;;;;5026524;28;20129;-71
2022/05/08 02:12:14;;;;;;;1.17;0.60;;;8.20;99.90;;;;;;5027575;28;20181;-71
2022/05/08 02:14:43;;;;;;;1.55;0.80;;;8.20;99.90;;;;;;5025079;28;20452;-71
2022/05/08 02:17:09;;;;;;;7.38;1.00;;;8.10;99.90;;;;;;5027062;28;20041;-71
2022/05/08 02:19:34;;;;;;;1.50;0.65;;;8.10;99.90;;;;;;5028654;28;20076;-71
2022/05/08 02:22:00;;;;;;;2.90;0.60;;;8.20;99.90;;;;;;5025990;28;20484;-71
2022/05/08 02:24:25;;;;;;;2.92;0.88;;;8.10;99.90;;;;;;5026662;28;20043;-72
2022/05/08 02:26:51;;;;;;;1.42;0.75;;;8.20;99.90;;;;;;5026037;28;20086;-71
2022/05/08 02:29:17;;;;;;;2.63;0.70;;;8.20;99.90;;;;;;5028370;28;20132;-71
2022/05/08 02:31:42;;;;;;;4.47;1.17;;;8.10;99.90;;;;;;5026453;28;20107;-71
2022/05/08 02:34:08;;;;;;;3.20;0.60;;;8.10;99.90;;;;;;5029243;28;20102;-71
2022/05/08 02:36:33;;;;;;;5.70;1.08;;;8.10;99.90;;;;;;5010822;28;20139;-71
2022/05/08 02:38:59;;;;;;;2.38;0.70;;;8.10;99.90;;;;;;5024673;28;20046;-71
2022/05/08 02:41:25;;;;;;;8.85;1.13;;;8.10;99.90;;;;;;5010588;28;20029;-71
2022/05/08 02:43:50;;;;;;;5.32;1.20;;;8.00;99.90;;;;;;5010278;28;20082;-71
2022/05/08 02:46:16;;;;;;;1.75;0.63;;;7.90;99.90;;;;;;5028259;28;20498;-71
2022/05/08 02:48:42;;;;;;;1.25;0.40;;;7.90;99.90;;;;;;5026018;28;20033;-71
2022/05/08 02:51:08;;;;;;;2.38;0.80;;;7.90;99.90;;;;;;5061220;28;20040;-71
2022/05/08 02:53:34;;;;;;;0.73;0.30;;;7.80;99.90;;;;;;5025016;28;20036;-71
2022/05/08 02:58:44;;;;;;;0.80;0.60;;;7.70;99.90;;;;;;5012006;28;20521;-72
2022/05/08 03:01:10;;;;;;;0.43;0.30;;;7.50;99.90;;;;;;5006645;28;20055;-71
2022/05/08 03:03:36;;;;;;;0.85;0.60;;;7.50;99.90;;;;;;5060305;28;20473;-71
2022/05/08 03:06:01;;;;;;;1.90;0.45;;;7.50;99.90;;;;;;5025653;28;20082;-72
2022/05/08 03:08:27;;;;;;;1.55;0.65;;;7.50;99.90;;;;;;5026134;28;20486;-71
2022/05/08 03:13:38;;;;;;;2.97;0.60;;;7.40;99.90;;;;;;5025639;28;20049;-72
2022/05/08 03:16:06;;;;;;;5.40;1.02;;;7.40;99.90;;;;;;5027103;28;20132;-71
2022/05/08 03:18:32;;;;;;;0.75;0.47;;;7.30;99.90;;;;;;5026788;28;20474;-71
2022/05/08 03:20:58;;;;;;;1.60;0.50;;;7.30;99.90;;;;;;5025302;28;20428;-72
2022/05/08 03:23:23;;;;;;;1.90;1.02;;;7.30;99.90;;;;;;5024743;28;20033;-72
2022/05/08 03:25:50;;;;;;;2.20;0.70;;;7.40;99.90;;;;;;5025356;28;20045;-71
2022/05/08 03:28:16;;;;;;;5.15;1.30;;;7.40;99.90;;;;;;5025809;28;20489;-72
2022/05/08 03:30:42;;;;;;;4.93;1.45;;;7.40;99.90;;;;;;5039779;28;20639;-71
2022/05/08 03:33:09;;;;;;;1.85;0.50;;;7.40;99.90;;;;;;5008398;28;20124;-71
2022/05/08 03:35:36;;;;;;;1.00;0.50;;;7.40;99.90;;;;;;5025246;28;20048;-71
2022/05/08 03:38:02;;;;;;;0.60;0.40;;;7.40;99.90;;;;;;5023738;28;20145;-71
2022/05/08 03:40:29;;;;;;;3.55;0.60;;;7.40;99.90;;;;;;5024697;28;20128;-72
2022/05/08 03:42:54;;;;;;;2.17;0.65;;;7.30;99.90;;;;;;5024686;28;20063;-72
2022/05/08 03:45:20;;;;;;;6.68;0.90;;;7.30;99.90;;;;;;5026441;28;20072;-71
2022/05/08 03:47:50;;;;;;;2.55;0.70;;;7.30;99.90;;;;;;5011739;28;20068;-71
2022/05/08 03:50:17;;;;;;;1.95;0.70;;;7.30;99.90;;;;;;5024197;28;20055;-72
2022/05/08 03:52:42;;;;;;;1.83;0.82;;;7.30;99.90;;;;;;5023882;28;20045;-71
2022/05/08 03:55:08;;;;;;;2.53;1.42;;;7.20;99.90;;;;;;5024506;28;20037;-71
2022/05/08 03:57:34;;;;;;;4.72;0.82;;;7.20;99.90;;;;;;5024931;28;20045;-72
2022/05/08 03:59:59;;;;;;;3.50;0.93;;;7.20;99.90;;;;;;5025351;28;20032;-71
2022/05/08 04:02:25;;;;;;;2.55;1.00;;;7.10;99.90;;;;;;5010765;28;20412;-71
2022/05/08 04:04:51;;;;;;;2.83;0.75;;;7.10;99.90;;;;;;5024689;28;20037;-71
2022/05/08 04:07:17;;;;;;;1.23;0.50;;;7.10;99.90;;;;;;5022506;28;20033;-71
2022/05/08 04:09:42;;;;;;;1.17;0.60;;;7.10;99.90;;;;;;5021966;28;20037;-71
2022/05/08 04:12:08;;;;;;;4.53;0.70;;;7.10;99.90;;;;;;5026897;28;20041;-71
2022/05/08 04:14:33;;;;;;;1.27;0.57;;;7.10;99.90;;;;;;5024813;28;20037;-71
2022/05/08 04:16:59;;;;;;;0.60;0.40;;;7.10;99.90;;;;;;5008247;28;20437;-71
2022/05/08 04:19:25;;;;;;;0.55;0.35;;;7.10;99.90;;;;;;5042672;28;20033;-72
2022/05/08 04:24:16;;;;;;;0.65;0.30;;;7.00;99.90;;;;;;5005439;28;20064;-72
2022/05/08 04:24:36;;;;;;;3.05;0.68;;;7.10;99.90;;;;;;5022794;28;20044;-72
2022/05/08 04:27:02;;;;;;;2.90;0.80;;;7.00;99.90;;;;;;5024758;28;20426;-71
2022/05/08 04:29:27;;;;;;;1.52;0.68;;;6.90;99.90;;;;;;5024069;28;20041;-71
2022/05/08 04:31:53;;;;;;;1.08;0.55;;;7.00;99.90;;;;;;5057743;28;20045;-71
2022/05/08 04:34:18;;;;;;;1.95;0.82;;;7.00;99.90;;;;;;5024199;28;20124;-72
2022/05/08 04:36:44;;;;;;;2.00;0.28;;;7.00;99.90;;;;;;5023944;28;20623;-72
2022/05/08 04:39:09;;;;;;;1.95;0.85;;;7.10;99.90;;;;;;5007521;28;20048;-71
2022/05/08 04:41:35;;;;;;;2.35;0.80;;;7.10;99.90;;;;;;5025529;28;20033;-72
2022/05/08 04:44:01;;;;;;;5.10;1.48;;;7.10;99.90;;;;;;5024155;28;20036;-72
2022/05/08 04:46:27;;;;;;;1.50;0.90;;;7.10;99.90;;;;;;5024115;28;20314;-71
2022/05/08 04:48:53;;;;;;;9.60;1.48;;;7.10;99.90;;;;;;5025348;28;20094;-72
2022/05/08 04:51:19;;;;;;;3.53;0.80;;;7.10;99.90;;;;;;5022692;28;20061;-72
2022/05/08 04:53:44;;;;;;;7.30;1.58;;;7.20;99.90;;;;;;5041615;28;20025;-71
2022/05/08 04:56:10;;;;;;;2.72;0.63;;;7.20;99.90;;;;;;5022878;28;20134;-72
2022/05/08 04:58:36;;;;;;;2.70;0.82;;;7.10;99.90;;;;;;5021964;28;20238;-71
2022/05/08 05:01:02;;;;;;;3.65;0.98;;;7.20;99.90;;;;;;5009133;28;20040;-71
2022/05/08 05:03:27;;;;;;;1.30;0.60;;;7.30;99.90;;;;;;5022826;28;20397;-72
2022/05/08 05:05:53;;;;;;;1.77;0.77;;;7.20;99.90;;;;;;5023350;28;20481;-71
2022/05/08 05:08:20;;;;;;;1.10;0.60;;;7.20;99.90;;;;;;5023465;28;20418;-71
2022/05/08 05:10:47;;;;;;;1.92;0.88;;;7.30;99.90;;;;;;5022102;28;20052;-71
2022/05/08 05:13:12;;;;;;;4.57;1.23;;;7.30;99.90;;;;;;5024638;28;20613;-72
2022/05/08 05:15:38;;;;;;;3.45;0.93;;;7.30;99.90;;;;;;5023198;28;20398;-71
2022/05/08 05:18:03;;;;;;;2.28;1.10;;;7.30;99.90;;;;;;5007226;28;20085;-70
2022/05/08 05:20:29;;;;;;;4.88;1.17;;;7.20;99.90;;;;;;5022585;28;20037;-71
2022/05/08 05:22:58;;;;;;;7.35;1.05;;;7.30;99.90;;;;;;5023074;28;20500;-71
2022/05/08 05:25:24;;;;;;;4.55;0.85;;;7.30;99.90;;;;;;5007024;28;20083;-71
2022/05/08 05:27:49;;;;;;;4.05;0.90;;;7.40;99.90;;;;;;5022473;28;20448;-71
2022/05/08 05:30:16;;;;;;;1.88;0.93;;;7.50;99.90;;;;;;5022787;28;20047;-71
2022/05/08 05:32:42;;;;;;;5.03;1.17;;;7.50;99.90;;;;;;5021197;28;20402;-72
2022/05/08 05:35:07;;;;;;;2.53;1.00;;;7.60;99.90;;;;;;5022375;28;20045;-71
2022/05/08 05:37:34;;;;;;;1.48;0.75;;;7.70;99.90;;;;;;5055220;28;20052;-71
2022/05/08 05:40:00;;;;;;;2.03;0.85;;;7.90;99.90;;;;;;5023318;28;20386;-71
2022/05/08 05:42:25;;;;;;;5.00;2.00;;;8.20;99.90;;;;;;5023265;28;20720;-71
2022/05/08 05:44:51;;;;;;;2.78;1.10;;;8.40;99.90;;;;;;5021254;28;20112;-71
2022/05/08 05:50:01;;;;;;;5.05;1.17;;;8.80;99.90;;;;;;5020971;28;20052;-71
2022/05/08 05:52:27;;;;;;;0.93;0.65;;;8.90;99.90;;;;;;5021463;28;20041;-71
2022/05/08 05:54:53;;;;;;;1.23;0.63;;;8.90;99.90;;;;;;5022557;28;20036;-72
2022/05/08 05:57:18;;;;;;;2.55;1.00;;;8.80;99.90;;;;;;5022798;28;20036;-71
2022/05/08 05:59:45;;;;;;;6.22;0.70;;;8.80;99.90;;;;;;5023564;28;20041;-71
2022/05/08 06:02:11;;;;;;;3.60;0.85;;;8.80;99.90;;;;;;5015897;28;20048;-71
2022/05/08 06:04:37;;;;;;;1.98;0.68;;;8.80;99.90;;;;;;5040982;28;20024;-71
2022/05/08 06:07:03;;;;;;;0.82;0.57;;;8.80;99.90;;;;;;5005719;28;20433;-71
2022/05/08 06:09:29;;;;;;;2.22;0.77;;;8.80;99.90;;;;;;5020957;28;20037;-71
2022/05/08 06:11:54;;;;;;;2.25;1.08;;;8.90;99.90;;;;;;5021732;28;20048;-71
2022/05/08 06:14:20;;;;;;;2.90;0.63;;;9.20;99.90;;;;;;5005542;28;20477;-71
2022/05/08 06:16:45;;;;;;;2.33;0.68;;;9.50;99.90;;;;;;5034432;28;20044;-71
2022/05/08 06:19:11;;;;;;;2.05;0.60;;;9.70;99.90;;;;;;5024734;28;20040;-71
2022/05/08 06:21:37;;;;;;;6.57;0.70;;;9.90;99.90;;;;;;5020330;28;20441;-71
2022/05/08 06:24:03;;;;;;;2.65;0.80;;;10.10;99.90;;;;;;5018409;28;20567;-71
2022/05/08 06:26:28;;;;;;;6.15;0.60;;;10.30;99.90;;;;;;5038642;28;20120;-72
2022/05/08 06:28:57;;;;;;;1.30;0.30;;;10.40;99.90;;;;;;5017702;28;20049;-72
2022/05/08 06:31:23;;;;;;;0.60;0.38;;;10.50;99.90;;;;;;5021888;28;20114;-72
2022/05/08 06:33:49;;;;;;;1.05;0.55;;;10.40;99.90;;;;;;5006764;28;20033;-72
2022/05/08 06:36:15;;;;;;;1.02;0.40;;;10.30;99.90;;;;;;5011677;28;20053;-72
2022/05/08 06:38:40;;;;;;;0.98;0.40;;;10.20;99.90;;;;;;5014667;28;20584;-72
2022/05/08 06:41:06;;;;;;;0.28;0.25;;;10.20;99.90;;;;;;5017757;28;20072;-72
2022/05/08 06:43:32;;;;;;;1.92;0.40;;;10.20;99.90;;;;;;5019781;28;20061;-72
2022/05/08 06:45:58;;;;;;;2.78;0.85;;;10.20;99.90;;;;;;5018744;28;20037;-72
2022/05/08 06:48:23;;;;;;;2.40;0.60;;;10.20;99.90;;;;;;5015929;28;20503;-72
2022/05/08 06:50:49;;;;;;;1.50;0.40;;;10.20;99.90;;;;;;4994352;28;20053;-72
2022/05/08 06:53:15;;;;;;;2.28;0.60;;;10.20;99.90;;;;;;5014902;28;20049;-72
2022/05/08 06:55:43;;;;;;;1.02;0.30;;;10.20;99.80;;;;;;5014903;28;20167;-72
2022/05/08 06:58:08;;;;;;;2.45;0.50;;;10.30;99.90;;;;;;5019985;28;20056;-72
2022/05/08 07:03:18;;;;;;;1.50;0.55;;;10.40;99.90;;;;;;5013488;28;20482;-73
2022/05/08 07:05:47;;;;;;;1.50;0.57;;;10.40;99.90;;;;;;5014399;28;20034;-72
2022/05/08 07:08:15;;;;;;;0.57;0.20;;;10.60;99.90;;;;;;4992496;28;20631;-72
2022/05/08 07:10:42;;;;;;;0.45;0.30;;;10.60;99.90;;;;;;5040419;28;20041;-72
2022/05/08 07:13:08;;;;;;;0.47;0.30;;;10.70;99.70;;;;;;4983864;28;20041;-72
2022/05/08 07:15:33;;;;;;;0.93;0.40;;;10.70;99.90;;;;;;5011421;28;20470;-72
2022/05/08 07:17:59;;;;;;;2.58;0.60;;;10.70;99.00;;;;;;5010011;28;20045;-72
2022/05/08 07:20:24;;;;;;;3.15;0.75;;;10.70;99.00;;;;;;5012847;28;20037;-72
2022/05/08 07:22:50;;;;;;;1.20;0.70;;;10.80;99.00;;;;;;5027000;28;20067;-72
2022/05/08 07:25:16;;;;;;;1.52;0.65;;;10.90;99.10;;;;;;5027374;28;20045;-72
2022/05/08 07:27:42;;;;;;;4.20;0.43;;;10.90;98.50;;;;;;5011934;28;20038;-73
2022/05/08 07:30:08;;;;;;;3.63;0.80;;;10.90;97.70;;;;;;4996909;28;20041;-73
2022/05/08 07:32:34;;;;;;;1.35;0.45;;;11.00;98.10;;;;;;5010729;28;20467;-72
2022/05/08 07:37:44;;;;;;;0.50;0.30;;;10.90;97.50;;;;;;5013471;28;20057;-72
2022/05/08 07:40:13;;;;;;;6.50;0.73;;;10.90;96.90;;;;;;5014658;28;20410;-72
2022/05/08 07:45:14;;;;;;;5.45;0.60;;;11.00;96.60;;;;;;2953004;22;20048;-71
2022/05/08 07:47:40;;;;;;;1.48;0.40;;;11.00;96.50;;;;;;5052590;28;20335;-71
2022/05/08 07:50:06;;;;;;;3.05;0.43;;;11.00;96.20;;;;;;5061761;28;20040;-71
2022/05/08 07:52:42;;;;;;;2.03;0.50;;;11.00;95.80;;;;;;5084496;28;20054;-71
2022/05/08 07:55:08;;;;;;;5.53;0.55;;;11.10;95.80;;;;;;5063172;28;20069;-70
2022/05/08 07:57:34;;;;;;;1.17;0.43;;;11.10;96.20;;;;;;5062755;28;20048;-70
2022/05/08 07:59:59;;;;;;;0.82;0.25;;;11.10;95.40;;;;;;5044905;28;20126;-71
2022/05/08 08:02:25;;;;;;;2.08;0.52;;;11.20;95.50;;;;;;5059406;28;20115;-70
2022/05/08 08:04:51;;;;;;;3.13;0.55;;;11.10;95.20;;;;;;5056551;28;20039;-71
2022/05/08 08:07:17;;;;;;;0.90;0.40;;;11.10;95.70;;;;;;5059923;28;20028;-71
2022/05/08 08:09:43;;;;;;;2.50;0.82;;;11.00;95.80;;;;;;5088285;28;20043;-71
2022/05/08 08:12:09;;;;;;;2.45;0.75;;;10.90;95.70;;;;;;5076371;28;20049;-71
2022/05/08 08:14:34;;;;;;;0.70;0.40;;;10.90;96.00;;;;;;5068973;28;20111;-71
2022/05/08 08:17:00;;;;;;;1.25;0.35;;;10.90;96.20;;;;;;5060269;28;20157;-70
2022/05/08 08:19:25;;;;;;;2.50;0.60;;;10.90;96.10;;;;;;5063119;28;20248;-71
2022/05/08 08:21:52;;;;;;;0.30;0.30;;;10.90;96.10;;;;;;5086682;28;20032;-70
2022/05/08 08:24:17;;;;;;;1.52;0.52;;;10.90;95.50;;;;;;5060638;28;20040;-70
2022/05/08 08:26:43;;;;;;;5.25;0.63;;;11.00;94.90;;;;;;5062200;28;20035;-70
2022/05/08 08:29:09;;;;;;;0.60;0.40;;;11.00;95.60;;;;;;5064536;28;21378;-71
2022/05/08 08:31:34;;;;;;;2.70;0.60;;;11.00;94.60;;;;;;5060916;28;21296;-71
2022/05/08 08:34:00;;;;;;;4.35;0.40;;;11.10;95.10;;;;;;5058701;28;20042;-71
2022/05/08 08:36:25;;;;;;;1.65;0.45;;;11.10;95.70;;;;;;5055540;28;20040;-70
2022/05/08 08:38:51;;;;;;;3.20;0.45;;;11.10;95.60;;;;;;5045806;28;20259;-71
2022/05/08 08:41:23;;;;;;;7.13;0.80;;;11.20;95.30;;;;;;5058725;28;20171;-70
2022/05/08 08:49:23;;;;;;;1.38;0.32;;;11.30;94.80;;;;;;5072197;28;20056;-71
2022/05/08 08:51:50;;;;;;;0.68;0.30;;;11.40;94.60;;;;;;5048022;28;20044;-70
2022/05/08 08:54:20;;;;;;;0.95;0.40;;;11.40;94.50;;;;;;5056198;28;20039;-70
2022/05/08 08:56:46;;;;;;;3.17;0.60;;;11.40;93.10;;;;;;5038514;28;20040;-71
2022/05/08 08:59:12;;;;;;;1.55;0.60;;;11.40;93.10;;;;;;5084209;28;20173;-71
2022/05/08 09:01:44;;;;;;;2.40;0.40;;;11.40;93.50;;;;;;5040301;28;20122;-70
2022/05/08 09:04:15;;;;;;;1.17;0.52;;;11.40;92.70;;;;;;5055801;28;20047;-70
2022/05/08 09:06:42;;;;;;;1.02;0.75;;;11.40;93.50;;;;;;5054120;28;20048;-70
2022/05/08 09:09:28;;;;;;;1.15;0.60;;;11.40;93.70;;;;;;5062106;28;20105;-72
2022/05/08 09:11:56;;;;;;;1.05;0.50;;;11.50;92.00;;;;;;5071655;28;20045;-70
2022/05/08 09:14:33;;;;;;;4.72;0.40;;;11.60;92.50;;;;;;5059994;28;20147;-70
2022/05/08 09:17:01;;;;;;;1.88;0.68;;;11.60;89.00;;;;;;5068069;28;20111;-71
2022/05/08 09:19:37;;;;;;;1.00;0.60;;;11.70;90.90;;;;;;5091696;28;20047;-71
2022/05/08 09:22:07;;;;;;;1.75;0.52;;;11.70;90.40;;;;;;5066992;28;20075;-70
2022/05/08 09:24:38;;;;;;;0.63;0.43;;;11.70;90.50;;;;;;5064793;28;20109;-70
2022/05/08 09:27:10;;;;;;;0.57;0.28;;;11.70;91.10;;;;;;5065879;28;20044;-70
2022/05/08 09:29:35;;;;;;;1.25;0.57;;;11.70;90.20;;;;;;5062906;28;20048;-70
2022/05/08 09:32:01;;;;;;;2.65;0.60;;;11.70;91.30;;;;;;5065708;28;20446;-71
2022/05/08 09:34:27;;;;;;;1.30;0.30;;;11.80;91.50;;;;;;5045020;28;20032;-71
2022/05/08 09:37:06;;;;;;;1.77;0.50;;;11.80;91.00;;;;;;5054327;28;20492;-71
2022/05/08 09:39:32;;;;;;;1.40;0.45;;;11.80;89.60;;;;;;5057120;28;20036;-71
2022/05/08 09:41:57;;;;;;;2.63;0.60;;;11.80;91.50;;;;;;5080176;28;20093;-70
2022/05/08 09:44:23;;;;;;;0.60;0.40;;;11.80;91.60;;;;;;5088451;28;20075;-71
2022/05/08 09:46:49;;;;;;;2.05;0.60;;;11.90;90.90;;;;;;5079650;28;20135;-70
2022/05/08 09:49:24;;;;;;;1.50;0.60;;;12.00;90.60;;;;;;5062123;28;21547;-71
2022/05/08 09:51:53;;;;;;;4.78;0.50;;;12.00;88.90;;;;;;5062994;28;21016;-70
2022/05/08 09:54:19;;;;;;;1.88;0.88;;;12.00;90.40;;;;;;5057284;28;20060;-71
2022/05/08 09:56:46;;;;;;;2.13;0.45;;;12.00;90.60;;;;;;5060108;28;20038;-71
2022/05/08 09:59:12;;;;;;;3.40;0.75;;;12.10;90.00;;;;;;5057328;28;20043;-70
2022/05/08 10:01:39;;;;;;;5.15;0.63;;;12.10;90.40;;;;;;5059737;28;20044;-70
2022/05/08 10:04:05;;;;;;;3.58;0.80;;;12.10;90.90;;;;;;5058288;28;20542;-71
2022/05/08 10:06:33;;;;;;;0.65;0.30;;;12.20;90.60;;;;;;5082574;28;20044;-70
2022/05/08 10:13:53;;;;;;;0.63;0.52;;;12.20;90.20;;;;;;5054672;28;20040;-71
2022/05/08 10:14:33;;;;;;;1.03;0.50;;;12.30;89.30;;;;;;5060548;28;20036;-71
2022/05/08 10:17:05;;;;;;;1.73;0.70;;;12.40;89.10;;;;;;5067414;28;20036;-71
2022/05/08 10:19:30;;;;;;;2.88;0.75;;;12.40;89.60;;;;;;5060968;28;20036;-70
2022/05/08 10:22:13;;;;;;;7.43;0.70;;;12.50;88.50;;;;;;5085732;28;20097;-70
2022/05/08 10:24:40;;;;;;;2.20;0.50;;;12.50;87.30;;;;;;5058933;28;20249;-70
2022/05/08 10:27:27;;;;;;;1.38;0.55;;;12.50;88.70;;;;;;5086411;28;20059;-71
2022/05/08 10:29:53;;;;;;;1.50;0.55;;;12.60;86.80;;;;;;5060084;28;20329;-70
2022/05/08 10:32:28;;;;;;;1.60;0.47;;;12.60;86.70;;;;;;5064054;28;20090;-70
2022/05/08 10:35:07;;;;;;;0.63;0.40;;;12.60;76.70;;;;;;5057077;28;20032;-71
2022/05/08 10:37:34;;;;;;;2.05;0.50;;;12.50;80.10;;;;;;5060522;28;20492;-71
2022/05/08 10:40:01;;;;;;;1.25;0.55;;;12.60;83.80;;;;;;5061950;28;20131;-71
2022/05/08 10:42:44;;;;;;;0.85;0.60;;;12.60;84.90;;;;;;5064076;28;20489;-71
2022/05/08 10:45:30;;;;;;;2.78;0.85;;;12.70;81.50;;;;;;5045571;28;20098;-71
2022/05/08 10:47:56;;;;;;;2.50;0.57;;;12.70;76.70;;;;;;5046633;28;20051;-71
2022/05/08 10:50:21;;;;;;;4.97;0.75;;;12.80;84.50;;;;;;5049687;28;20050;-71
2022/05/08 10:52:47;;;;;;;5.10;0.65;;;12.80;85.50;;;;;;5066876;28;20048;-71
2022/05/08 10:55:15;;;;;;;3.45;0.70;;;12.80;83.40;;;;;;5060385;28;20047;-71
2022/05/08 10:57:46;;;;;;;2.92;0.45;;;12.90;82.70;;;;;;5090480;28;20037;-71
2022/05/08 11:00:17;;;;;;;3.40;0.65;;;12.90;81.70;;;;;;5063204;28;20172;-71
2022/05/08 11:02:54;;;;;;;1.17;0.75;;;12.90;81.20;;;;;;5065980;28;20040;-71
2022/05/08 11:05:29;;;;;;;4.13;0.60;;;12.90;83.70;;;;;;5079102;28;20036;-71
2022/05/08 11:08:06;;;;;;;0.32;0.30;;;12.90;81.50;;;;;;5060461;28;20055;-70
2022/05/08 11:10:38;;;;;;;0.95;0.40;;;12.90;79.40;;;;;;5063095;28;20052;-71
2022/05/08 11:13:11;;;;;;;0.60;0.40;;;12.90;82.00;;;;;;5050021;28;20056;-71
2022/05/08 11:15:43;;;;;;;1.27;0.55;;;12.80;79.50;;;;;;5060933;28;20538;-71
2022/05/08 11:18:10;;;;;;;1.15;0.35;;;12.90;83.20;;;;;;5043811;28;20035;-71
2022/05/08 11:20:37;;;;;;;1.58;0.50;;;12.90;80.90;;;;;;5081552;28;20127;-71
2022/05/08 11:23:04;;;;;;;1.80;0.70;;;13.00;82.10;;;;;;5064947;28;20033;-71
2022/05/08 11:25:32;;;;;;;2.58;0.57;;;13.00;80.80;;;;;;5063663;28;20074;-67
2022/05/08 11:27:58;;;;;;;3.70;0.75;;;13.00;81.30;;;;;;5065994;28;20054;-71
2022/05/08 11:30:35;;;;;;;4.32;0.57;;;13.00;81.00;;;;;;5066331;28;20040;-71
2022/05/08 11:36:06;;;;;;;2.93;0.77;;;13.10;80.50;;;;;;5085890;28;20048;-71
2022/05/08 11:38:50;;;;;;;0.85;0.43;;;13.20;80.60;;;;;;5065235;28;20028;-71
2022/05/08 11:41:24;;;;;;;5.55;0.60;;;13.20;78.10;;;;;;5048852;28;20048;-71
2022/05/08 11:44:09;;;;;;;5.25;1.00;;;13.20;73.90;;;;;;5048823;28;20489;-71
2022/05/08 11:46:36;;;;;;;;;;;13.30;79.90;;;;;;5053539;28;20047;-71
2022/05/08 11:49:12;;;;;;;1.38;0.50;;;13.20;69.70;;;;;;5078156;28;19920;-71
2022/05/08 11:51:40;;;;;;;;;;;13.30;76.40;;;;;;5038306;28;20745;-71
2022/05/08 11:54:05;;;;;;;1.48;0.60;;;13.30;69.70;;;;;;5063001;28;19923;-71
2022/05/08 11:56:33;;;;;;;2.45;0.73;;;13.30;79.40;;;;;;5060367;28;20036;-71
2022/05/08 11:59:06;;;;;;;0.93;0.35;;;13.30;78.80;;;;;;5077090;28;20506;-74
2022/05/08 12:01:34;;;;;;;2.03;0.80;;;13.40;80.30;;;;;;5050321;28;20516;-71
2022/05/08 12:04:23;;;;;;;2.08;0.60;;;13.40;79.20;;;;;;5068626;28;20040;-71
2022/05/08 12:07:11;;;;;;;2.28;0.85;;;13.40;75.40;;;;;;5063052;28;20501;-70
2022/05/08 12:09:55;;;;;;;4.18;1.05;;;13.50;74.20;;;;;;5060316;28;20036;-70
2022/05/08 12:12:30;;;;;;;1.85;0.68;;;13.50;70.80;;;;;;5071006;28;20032;-70
2022/05/08 12:15:08;;;;;;;4.10;0.60;;;13.50;75.00;;;;;;5061462;28;20039;-71
2022/05/08 12:17:53;;;;;;;4.20;0.70;;;13.50;72.50;;;;;;5071885;28;20052;-71
2022/05/08 12:20:28;;;;;;;3.20;0.70;;;13.50;69.20;;;;;;5072499;28;20068;-71
2022/05/08 12:22:57;;;;;;;2.55;0.68;;;13.60;75.20;;;;;;5071150;28;20050;-71
2022/05/08 12:25:23;;;;;;;1.55;0.70;;;13.60;75.60;;;;;;5070975;28;20071;-71
2022/05/08 12:27:49;;;;;;;2.08;0.60;;;13.60;77.90;;;;;;5072092;28;20082;-71
2022/05/08 12:30:15;;;;;;;5.28;0.95;;;13.60;78.50;;;;;;5072120;28;20047;-71
2022/05/08 12:32:41;;;;;;;3.03;0.45;;;13.60;78.30;;;;;;5089094;28;20037;-71
2022/05/08 12:35:11;;;;;;;3.25;0.73;;;13.70;76.90;;;;;;5071918;28;20050;-71
2022/05/08 12:37:39;;;;;;;4.20;0.82;;;13.70;75.90;;;;;;5054211;28;20044;-71
2022/05/08 12:40:06;;;;;;;1.13;0.50;;;13.60;77.10;;;;;;5070370;28;20553;-71
2022/05/08 12:42:32;;;;;;;0.68;0.52;;;13.60;76.60;;;;;;5088741;28;20044;-71
2022/05/08 12:44:58;;;;;;;1.10;0.50;;;13.60;74.10;;;;;;5053542;28;20052;-71
2022/05/08 12:47:23;;;;;;;1.92;0.70;;;13.70;75.00;;;;;;5054838;28;20037;-71
2022/05/08 12:49:49;;;;;;;1.40;0.43;;;13.70;75.10;;;;;;5105659;28;20139;-71
2022/05/08 12:52:15;;;;;;;2.75;0.70;;;13.80;75.40;;;;;;5068823;28;20093;-71
2022/05/08 12:54:41;;;;;;;0.70;0.50;;;13.80;72.80;;;;;;5070631;28;20036;-71
2022/05/08 12:57:08;;;;;;;1.85;1.13;;;13.80;73.20;;;;;;5071512;28;20565;-71
2022/05/08 12:59:47;;;;;;;1.67;0.88;;;13.90;71.30;;;;;;5071824;28;20489;-71
2022/05/08 13:02:19;;;;;;;1.88;0.60;;;13.80;70.60;;;;;;5053203;28;20040;-71
2022/05/08 13:04:48;;;;;;;1.05;0.22;;;13.80;69.50;;;;;;5055302;28;20032;-71
2022/05/08 13:07:14;;;;;;;5.15;1.60;;;13.80;71.90;;;;;;5070990;28;20046;-71
2022/05/08 13:09:41;;;;;;;0.57;0.30;;;13.80;71.50;;;;;;5068449;28;20444;-71
2022/05/08 13:12:07;;;;;;;1.02;0.40;;;13.80;72.60;;;;;;5070351;28;20040;-71
2022/05/08 13:14:34;;;;;;;2.65;0.50;;;13.80;73.10;;;;;;5071757;28;20047;-71
2022/05/08 13:17:02;;;;;;;1.75;0.68;;;13.90;72.40;;;;;;5070755;28;20055;-71
2022/05/08 13:19:29;;;;;;;1.08;0.60;;;13.90;69.60;;;;;;5069093;28;20032;-71
2022/05/08 13:21:55;;;;;;;6.85;0.60;;;14.00;70.60;;;;;;5070628;28;20063;-71
2022/05/08 13:24:21;;;;;;;1.10;0.50;;;14.00;71.60;;;;;;5054522;28;20036;-71